SLTL weather

Toldos Airport
Nor Lipez, Potosí Department, Bolivia

Public forecast

Using degrees Celsius for public forecast. Weather courtesy of forecast.io.

METAR (pilot weather report)

Report is more than 6 hours old.

Closest report is Uyuni Airport, 47.2 nm (87.4 km) NNE. Retrieved 2019/04/23 22:00 UTC (2 days ago):

SLUY 232200Z 28008KT 9999 FEW025 SCT200 15/M00 Q1030

TAF (pilot weather forecast)

Forecast is more than 12 hours old.

Closest forecast is Uyuni Airport, 47.2 nm (87.4 km) NNE. Retrieved 2018/10/09 18:35 UTC (7 months ago):

TAF SLUY 091600Z 0918/1018 32010G20KT 9999 FEW023 TX17/0920Z TNM02/ 1010Z BECMG 0923/1001 02010KT BECMG 1012/1014 34008KT